Terminal Aerodrome Forecast
Issued by NWS Cheyenne, WY

Home | Current Version | Previous Version | Text Only | Print | Product List | Glossary On
Versions: 1 2 3 4 5 6 7 8 9 10 11 12 13 14 15 16 17
000
FTUS45 KCYS 230902 AAA
TAFCYS
TAF AMD
KCYS 230902Z 2309/2406 02007KT P6SM SCT120
     FM231100 04006KT P6SM VCFG BKN008
     FM231800 09009KT P6SM -SHRA SCT008 OVC015=

USA.gov is the U.S. government's official web portal to all federal, state and local government web resources and services.